Time;durP1;ratioP1;P1;durP2;ratioP2;P2;SDS_P1;SDS_P2;PMS_P1;PMS_P2;Temp;Humidity;BMP_temperature;BMP_pressure;BME280_temperature;BME280_humidity;BME280_pressure;Samples;Min_cycle;Max_cycle;Signal;HPM_P1;HPM_P2
2020/12/16 00:01:07;;;;;;;24.48;4.07;;;;;;;8.26;87.78;99025.97;5050585;28;20059;-52
2020/12/16 00:03:34;;;;;;;44.78;5.65;;;;;;;8.27;87.68;99027.56;5036058;28;20051;-52
2020/12/16 00:06:02;;;;;;;26.30;3.72;;;;;;;8.27;87.71;99016.53;5069398;28;20540;-50
2020/12/16 00:08:29;;;;;;;20.75;4.20;;;;;;;8.27;87.67;99022.03;5067934;28;20075;-50
2020/12/16 00:10:56;;;;;;;45.33;5.68;;;;;;;8.27;87.81;99022.03;5072986;28;20040;-49
2020/12/16 00:13:23;;;;;;;24.85;4.55;;;;;;;8.26;87.87;99015.69;5072699;28;20098;-53
2020/12/16 00:15:49;;;;;;;26.50;4.85;;;;;;;8.26;88.11;99014.94;5071592;28;20050;-50
2020/12/16 00:18:16;;;;;;;31.67;5.03;;;;;;;8.26;88.32;98998.38;5055849;28;20521;-53
2020/12/16 00:20:43;;;;;;;40.33;5.07;;;;;;;8.26;88.36;99017.69;5056069;28;20045;-52
2020/12/16 00:23:10;;;;;;;27.15;3.08;;;;;;;8.26;88.74;99015.69;5055820;28;20406;-53
2020/12/16 00:25:37;;;;;;;21.85;4.65;;;;;;;8.26;88.40;99014.94;5055378;28;20078;-51
2020/12/16 00:28:03;;;;;;;32.75;5.63;;;;;;;8.26;88.37;99009.41;5055084;28;20090;-50
2020/12/16 00:30:32;;;;;;;37.97;5.18;;;;;;;8.24;88.52;99001.50;5073356;28;20040;-53
2020/12/16 00:32:58;;;;;;;35.28;6.10;;;;;;;8.24;88.52;98984.97;5073550;28;20090;-52
2020/12/16 00:35:29;;;;;;;25.83;4.53;;;;;;;8.24;88.58;98981.41;5073150;28;20379;-49
2020/12/16 00:37:59;;;;;;;15.15;4.13;;;;;;;8.23;88.68;98971.56;5073030;28;20450;-54
2020/12/16 00:40:28;;;;;;;35.72;5.38;;;;;;;8.24;88.69;98967.63;5072479;28;20426;-54
2020/12/16 00:42:54;;;;;;;20.27;4.18;;;;;;;8.23;88.78;98968.81;5072905;28;20048;-52
2020/12/16 00:45:20;;;;;;;24.98;3.72;;;;;;;8.23;88.80;98952.25;5073008;28;20098;-50
2020/12/16 00:47:48;;;;;;;22.45;4.60;;;;;;;8.21;88.74;98940.78;5072257;28;20037;-51
2020/12/16 00:50:15;;;;;;;28.15;5.18;;;;;;;8.19;88.98;98943.13;5072440;28;20470;-53
2020/12/16 00:52:52;;;;;;;35.45;5.43;;;;;;;8.18;89.12;98931.31;5066624;28;20050;-53
2020/12/16 00:55:19;;;;;;;32.80;8.40;;;;;;;8.18;89.23;98914.00;5054935;28;20459;-50
2020/12/16 00:57:45;;;;;;;34.10;5.15;;;;;;;8.18;89.33;98922.28;5072278;28;20047;-49
2020/12/16 01:00:12;;;;;;;49.60;8.48;;;;;;;8.18;89.38;98892.72;5072443;28;20063;-50
2020/12/16 01:02:46;;;;;;;32.58;4.45;;;;;;;8.17;89.78;98899.41;5072280;28;20098;-54
2020/12/16 01:05:14;;;;;;;24.95;3.83;;;;;;;8.16;89.24;98894.25;5072934;28;20119;-51
2020/12/16 01:07:41;;;;;;;25.90;4.22;;;;;;;8.15;88.81;98892.69;5072739;28;20068;-50
2020/12/16 01:10:10;;;;;;;20.42;4.63;;;;;;;8.13;89.06;98884.78;5072528;28;20036;-53
2020/12/16 01:12:41;;;;;;;25.40;4.57;;;;;;;8.14;89.28;98866.28;5076125;28;20044;-53
2020/12/16 01:15:10;;;;;;;34.78;5.93;;;;;;;8.15;89.70;98848.59;5076140;28;20119;-48
2020/12/16 01:17:39;;;;;;;29.88;5.35;;;;;;;8.15;89.69;98835.59;5076448;28;20076;-52
2020/12/16 01:20:09;;;;;;;24.40;3.97;;;;;;;8.16;89.61;98828.91;5075879;28;20044;-50
2020/12/16 01:22:44;;;;;;;34.78;4.75;;;;;;;8.17;89.99;98815.94;5076399;28;20043;-52
2020/12/16 01:25:17;;;;;;;32.10;7.18;;;;;;;8.17;90.38;98796.63;5075018;28;20124;-49
2020/12/16 01:27:43;;;;;;;49.35;7.07;;;;;;;8.19;90.07;98791.53;5058800;28;20441;-50
2020/12/16 01:30:12;;;;;;;45.38;5.63;;;;;;;8.20;90.40;98779.34;5076833;28;20041;-49
2020/12/16 01:32:41;;;;;;;34.13;6.20;;;;;;;8.20;90.34;98765.56;5075728;28;20067;-48
2020/12/16 01:35:08;;;;;;;36.38;6.35;;;;;;;8.20;90.48;98768.31;5076083;28;20048;-52
2020/12/16 01:37:38;;;;;;;31.60;5.68;;;;;;;8.22;90.43;98763.22;5076247;28;20047;-49
2020/12/16 01:40:08;;;;;;;39.72;6.45;;;;;;;8.21;90.68;98737.59;5076234;28;20041;-49
2020/12/16 01:42:37;;;;;;;43.05;5.53;;;;;;;8.22;90.74;98727.38;5075860;28;20037;-51
2020/12/16 01:45:09;;;;;;;32.63;5.32;;;;;;;8.23;90.82;98717.94;5076029;28;20114;-51
2020/12/16 01:47:36;;;;;;;37.67;5.88;;;;;;;8.23;90.67;98706.94;5075889;28;20040;-50
2020/12/16 01:50:07;;;;;;;29.88;6.63;;;;;;;8.23;90.93;98695.91;5076396;28;20072;-48
2020/12/16 01:52:35;;;;;;;25.17;5.22;;;;;;;8.24;90.97;98708.50;5075343;28;20114;-47
2020/12/16 01:55:04;;;;;;;37.40;5.60;;;;;;;8.25;90.98;98705.38;5076517;28;20033;-47
2020/12/16 01:57:36;;;;;;;36.60;6.25;;;;;;;8.25;91.10;98705.38;5063791;28;20032;-50
2020/12/16 02:00:07;;;;;;;45.45;6.80;;;;;;;8.27;91.04;98691.22;5055998;28;20458;-50
2020/12/16 02:02:49;;;;;;;39.28;6.75;;;;;;;8.27;90.88;98675.47;5071006;28;20094;-50
2020/12/16 02:05:19;;;;;;;37.13;6.13;;;;;;;8.28;90.91;98679.84;5070103;28;20097;-52
2020/12/16 02:07:46;;;;;;;28.63;4.97;;;;;;;8.31;90.93;98686.56;5074947;28;20469;-51
2020/12/16 02:10:14;;;;;;;34.33;5.85;;;;;;;8.31;91.14;98659.75;5075881;28;20051;-47
2020/12/16 02:12:41;;;;;;;48.03;8.85;;;;;;;8.32;91.21;98666.06;5074357;28;20056;-53
2020/12/16 02:15:09;;;;;;;46.20;6.32;;;;;;;8.33;91.25;98662.16;5075887;28;20112;-48
2020/12/16 02:17:36;;;;;;;32.25;5.50;;;;;;;8.32;91.46;98649.53;5074914;28;20093;-50
2020/12/16 02:20:07;;;;;;;39.50;7.50;;;;;;;8.33;91.58;98648.38;5076187;28;20064;-52
2020/12/16 02:22:36;;;;;;;44.75;6.65;;;;;;;8.33;91.63;98653.88;5072738;28;20052;-50
2020/12/16 02:25:04;;;;;;;29.17;6.28;;;;;;;8.33;91.73;98645.59;5041380;28;20086;-49
2020/12/16 02:27:32;;;;;;;35.17;6.35;;;;;;;8.34;91.72;98638.94;5071900;28;20041;-48
2020/12/16 02:29:59;;;;;;;21.00;3.80;;;;;;;8.36;91.88;98644.84;5055558;28;20060;-47
2020/12/16 02:32:27;;;;;;;28.58;5.82;;;;;;;8.38;91.77;98634.22;5067917;28;20441;-47
2020/12/16 02:34:55;;;;;;;24.20;5.45;;;;;;;8.39;91.64;98627.53;5075247;28;20040;-49
2020/12/16 02:37:22;;;;;;;32.38;5.95;;;;;;;8.40;91.82;98620.84;5075029;28;20386;-49
2020/12/16 02:39:50;;;;;;;29.73;4.15;;;;;;;8.40;91.79;98629.91;5074929;28;20127;-52
2020/12/16 02:42:34;;;;;;;26.70;6.82;;;;;;;8.42;91.89;98632.28;5059249;28;20032;-48
2020/12/16 02:45:00;;;;;;;21.27;4.22;;;;;;;8.43;91.69;98622.84;5074681;28;20060;-48
2020/12/16 02:47:27;;;;;;;41.20;8.23;;;;;;;8.46;91.88;98624.84;5068552;28;20079;-48
2020/12/16 02:49:53;;;;;;;24.20;4.57;;;;;;;8.45;91.84;98620.47;5066085;28;20101;-49
2020/12/16 02:52:19;;;;;;;17.55;4.18;;;;;;;8.46;92.20;98608.28;5075173;28;20132;-48
2020/12/16 02:54:46;;;;;;;40.15;5.03;;;;;;;8.46;92.08;98611.84;5073922;28;20101;-48
2020/12/16 02:57:12;;;;;;;25.00;4.38;;;;;;;8.46;92.10;98613.81;5074635;28;20041;-49
2020/12/16 02:59:38;;;;;;;30.40;3.63;;;;;;;8.48;92.12;98597.66;5074363;28;20116;-50
2020/12/16 03:02:05;;;;;;;28.85;4.93;;;;;;;8.48;92.02;98584.66;5056930;28;20094;-48
2020/12/16 03:04:31;;;;;;;33.90;4.95;;;;;;;8.49;92.18;98588.22;5073015;28;20041;-48
2020/12/16 03:06:58;;;;;;;24.05;4.05;;;;;;;8.49;92.32;98577.19;5073734;28;20052;-49
2020/12/16 03:09:25;;;;;;;19.40;3.47;;;;;;;8.52;92.26;98587.47;5074260;28;20101;-54
2020/12/16 03:11:56;;;;;;;35.20;6.75;;;;;;;8.52;92.26;98582.72;5056480;28;20123;-50
2020/12/16 03:14:23;;;;;;;33.75;5.10;;;;;;;8.52;92.31;98570.91;5073176;28;20052;-49
2020/12/16 03:16:49;;;;;;;33.58;6.60;;;;;;;8.53;92.45;98550.41;5074835;28;20055;-51
2020/12/16 03:19:16;;;;;;;24.75;3.83;;;;;;;8.53;92.37;98528.34;5074552;28;20506;-47
2020/12/16 03:21:42;;;;;;;36.00;7.22;;;;;;;8.54;92.35;98522.47;5074162;28;20040;-48
2020/12/16 03:24:24;;;;;;;35.83;5.50;;;;;;;8.55;92.51;98529.56;5073155;28;20040;-48
2020/12/16 03:26:52;;;;;;;33.55;6.40;;;;;;;8.58;92.71;98519.72;5074912;28;20056;-48
2020/12/16 03:29:18;;;;;;;30.30;5.07;;;;;;;8.59;92.51;98521.31;5058603;28;20086;-47
2020/12/16 03:31:44;;;;;;;29.63;4.03;;;;;;;8.59;92.68;98496.47;5073865;28;20071;-49
2020/12/16 03:34:11;;;;;;;17.10;3.30;;;;;;;8.61;92.94;98513.44;5071898;28;20063;-51
2020/12/16 03:36:40;;;;;;;24.15;3.88;;;;;;;8.62;92.94;98501.22;5073735;28;20119;-50
2020/12/16 03:39:06;;;;;;;22.52;3.67;;;;;;;8.64;92.74;98498.88;5074130;28;20491;-47
2020/12/16 03:41:33;;;;;;;33.85;4.88;;;;;;;8.63;92.82;98472.44;5073654;28;20074;-53
2020/12/16 03:43:59;;;;;;;26.45;4.63;;;;;;;8.66;92.88;98477.19;5072971;28;20040;-49
2020/12/16 03:46:26;;;;;;;20.23;3.42;;;;;;;8.66;92.79;98460.66;5073820;28;20080;-50
2020/12/16 03:48:52;;;;;;;29.13;4.60;;;;;;;8.67;93.00;98461.44;5074064;28;20166;-48
2020/12/16 03:51:18;;;;;;;18.60;4.88;;;;;;;8.66;92.94;98457.91;5073943;28;20120;-48
2020/12/16 03:53:45;;;;;;;25.90;3.75;;;;;;;8.66;93.07;98449.63;5073345;28;20135;-50
2020/12/16 03:56:13;;;;;;;17.40;3.78;;;;;;;8.68;93.19;98441.78;5072888;28;20392;-49
2020/12/16 03:58:47;;;;;;;39.92;5.95;;;;;;;8.68;93.23;98433.50;5073072;28;20044;-47
2020/12/16 04:01:16;;;;;;;33.70;4.15;;;;;;;8.69;93.21;98429.53;5073258;28;20063;-48
2020/12/16 04:03:42;;;;;;;22.27;4.13;;;;;;;8.71;93.26;98424.41;5073530;28;20045;-49
2020/12/16 04:06:10;;;;;;;23.42;4.43;;;;;;;8.73;93.29;98421.28;5072871;28;20040;-50
2020/12/16 04:08:40;;;;;;;18.10;3.10;;;;;;;8.74;93.53;98434.69;5056315;28;20053;-48
2020/12/16 04:11:13;;;;;;;31.00;3.95;;;;;;;8.75;93.49;98425.22;5047274;28;20531;-53
2020/12/16 04:13:40;;;;;;;20.00;2.90;;;;;;;8.77;93.44;98409.06;5047565;28;20104;-48
2020/12/16 04:16:10;;;;;;;28.63;4.28;;;;;;;8.80;93.51;98405.53;5072693;28;20040;-48
2020/12/16 04:18:36;;;;;;;17.02;3.55;;;;;;;8.83;93.64;98403.97;5073932;28;20429;-49
2020/12/16 04:21:07;;;;;;;19.88;3.30;;;;;;;8.86;93.28;98403.19;5073010;28;20090;-51
2020/12/16 04:23:35;;;;;;;18.00;3.60;;;;;;;8.88;93.48;98407.13;5072872;28;20041;-49
2020/12/16 04:26:02;;;;;;;14.50;3.50;;;;;;;8.90;93.40;98393.72;5073215;28;20300;-51
2020/12/16 04:28:28;;;;;;;14.48;4.38;;;;;;;8.93;93.30;98390.19;5062126;28;20068;-48
2020/12/16 04:30:55;;;;;;;19.40;3.72;;;;;;;8.96;93.45;98356.31;5056273;28;20478;-50
2020/12/16 04:33:22;;;;;;;20.42;3.05;;;;;;;8.96;93.32;98356.31;5063830;28;20445;-52
2020/12/16 04:35:48;;;;;;;18.52;3.40;;;;;;;8.97;93.30;98355.13;5056115;28;20127;-49
2020/12/16 04:38:14;;;;;;;16.05;2.40;;;;;;;8.97;93.15;98359.84;5072705;28;20399;-48
2020/12/16 04:40:41;;;;;;;11.27;2.53;;;;;;;8.96;92.89;98356.31;5072937;28;20094;-50
2020/12/16 04:43:09;;;;;;;22.05;3.45;;;;;;;8.93;92.77;98340.53;5072800;28;20124;-50
2020/12/16 04:45:37;;;;;;;20.45;2.30;;;;;;;8.91;92.45;98340.13;5073088;28;20428;-50
2020/12/16 04:48:06;;;;;;;12.57;3.53;;;;;;;8.89;92.09;98339.75;5073645;28;20044;-48
2020/12/16 04:50:33;;;;;;;19.42;3.22;;;;;;;8.88;92.20;98331.84;5072598;28;20052;-48
2020/12/16 04:53:03;;;;;;;15.50;2.97;;;;;;;8.84;91.75;98334.59;5072308;28;20040;-50
2020/12/16 04:55:31;;;;;;;32.45;9.32;;;;;;;8.81;91.86;98327.13;5073024;28;20559;-47
2020/12/16 04:58:00;;;;;;;19.50;3.60;;;;;;;8.79;91.85;98329.47;5072494;28;20091;-48
2020/12/16 05:00:28;;;;;;;26.17;5.78;;;;;;;8.77;91.67;98334.59;5039823;28;20439;-48
2020/12/16 05:03:01;;;;;;;18.83;5.80;;;;;;;8.73;91.49;98336.56;5071364;28;20457;-47
2020/12/16 05:05:29;;;;;;;32.40;6.10;;;;;;;8.71;91.28;98330.63;5072950;28;20045;-48
2020/12/16 05:07:56;;;;;;;30.38;5.57;;;;;;;8.71;91.27;98341.66;5072569;28;20673;-47
2020/12/16 05:10:34;;;;;;;31.85;4.10;;;;;;;8.68;90.95;98334.19;5072385;28;20041;-48
2020/12/16 05:13:09;;;;;;;32.95;8.75;;;;;;;8.63;90.65;98331.78;5062756;28;20056;-48
2020/12/16 05:15:41;;;;;;;20.15;4.05;;;;;;;8.59;90.49;98339.28;5048165;28;20037;-48
2020/12/16 05:18:12;;;;;;;27.98;5.50;;;;;;;8.54;90.40;98357.00;5072214;28;20068;-55
2020/12/16 05:20:40;;;;;;;26.48;5.00;;;;;;;8.49;90.18;98364.88;5072099;28;20043;-51
2020/12/16 05:23:07;;;;;;;27.98;4.53;;;;;;;8.43;89.70;98374.69;5061852;28;20120;-53
2020/12/16 05:25:35;;;;;;;15.05;3.45;;;;;;;8.41;89.61;98377.03;5071030;28;20035;-48
2020/12/16 05:28:03;;;;;;;14.40;2.90;;;;;;;8.38;89.42;98383.34;5065316;28;20459;-49
2020/12/16 05:30:31;;;;;;;17.20;3.38;;;;;;;8.35;89.11;98395.94;5072170;28;20125;-49
2020/12/16 05:33:03;;;;;;;19.42;2.22;;;;;;;8.33;88.12;98392.78;5052337;28;20040;-50
2020/12/16 05:35:33;;;;;;;10.60;2.10;;;;;;;8.35;88.56;98403.41;5070050;28;20043;-52
2020/12/16 05:38:05;;;;;;;13.75;3.40;;;;;;;8.31;88.04;98405.38;5072462;28;20040;-50
2020/12/16 05:40:35;;;;;;;14.77;3.35;;;;;;;8.32;88.55;98412.44;5072308;28;20056;-51
2020/12/16 05:43:03;;;;;;;11.30;2.17;;;;;;;8.32;88.64;98417.94;5072178;28;20040;-54
2020/12/16 05:45:31;;;;;;;11.98;2.25;;;;;;;8.29;88.15;98396.66;5072101;28;20057;-49
2020/12/16 05:48:08;;;;;;;14.85;3.33;;;;;;;8.28;87.15;98406.94;5072525;28;20072;-53
2020/12/16 05:50:56;;;;;;;15.07;2.15;;;;;;;8.29;87.37;98407.69;5072449;28;20075;-51
2020/12/16 05:53:29;;;;;;;16.33;3.50;;;;;;;8.26;87.76;98403.72;5060419;28;20040;-51
2020/12/16 05:55:57;;;;;;;15.38;2.25;;;;;;;8.25;87.58;98415.13;5072817;28;20110;-48
2020/12/16 05:58:25;;;;;;;18.20;2.47;;;;;;;8.25;87.47;98407.66;5074296;28;20040;-54
2020/12/16 06:00:59;;;;;;;12.68;2.70;;;;;;;8.25;86.86;98409.63;5074627;28;20101;-50
2020/12/16 06:03:33;;;;;;;16.38;2.97;;;;;;;8.28;87.28;98408.88;5075288;28;20076;-53
2020/12/16 06:06:08;;;;;;;17.20;3.28;;;;;;;8.27;87.26;98408.09;5076156;28;20131;-54
2020/12/16 06:08:38;;;;;;;12.65;3.22;;;;;;;8.28;87.58;98411.66;5074331;28;20075;-57
2020/12/16 06:11:07;;;;;;;16.92;4.28;;;;;;;8.26;87.50;98391.91;5075869;28;20048;-52
2020/12/16 06:13:34;;;;;;;17.48;3.83;;;;;;;8.28;87.37;98397.88;5064702;28;20052;-53
2020/12/16 06:16:07;;;;;;;15.05;2.53;;;;;;;8.28;87.49;98414.41;5075297;28;20044;-49
2020/12/16 06:18:47;;;;;;;18.33;3.95;;;;;;;8.27;86.96;98399.03;5075579;28;20056;-50
2020/12/16 06:21:14;;;;;;;18.35;4.85;;;;;;;8.29;87.54;98391.16;5075289;28;20087;-48
2020/12/16 06:23:42;;;;;;;16.23;3.83;;;;;;;8.28;87.55;98389.59;5075477;28;20090;-52
2020/12/16 06:26:12;;;;;;;16.17;3.50;;;;;;;8.28;87.58;98395.09;5074014;28;20041;-52
2020/12/16 06:28:40;;;;;;;19.80;3.92;;;;;;;8.29;87.76;98389.19;5056182;28;20044;-54
2020/12/16 06:31:26;;;;;;;14.38;2.90;;;;;;;8.24;86.58;98380.47;5041380;28;20396;-52
2020/12/16 06:34:01;;;;;;;9.98;2.30;;;;;;;8.29;87.47;98404.94;5074588;28;20571;-53
2020/12/16 06:36:38;;;;;;;11.35;2.33;;;;;;;8.30;87.96;98415.59;5074590;28;20044;-51
2020/12/16 06:39:19;;;;;;;10.88;1.77;;;;;;;8.30;87.40;98420.31;5073760;28;20064;-51
2020/12/16 06:41:55;;;;;;;12.35;1.58;;;;;;;8.32;87.33;98406.94;5074740;28;20123;-49
2020/12/16 06:44:22;;;;;;;6.32;1.35;;;;;;;8.34;87.66;98401.84;5074251;28;20066;-55
2020/12/16 06:46:50;;;;;;;8.57;0.95;;;;;;;8.35;87.55;98417.97;5075652;28;20040;-49
2020/12/16 06:49:22;;;;;;;4.65;1.70;;;;;;;8.35;86.44;98417.97;5074832;28;20044;-51
2020/12/16 06:51:50;;;;;;;8.75;2.20;;;;;;;8.40;87.11;98422.31;5074573;28;20474;-50
2020/12/16 06:54:19;;;;;;;13.13;2.80;;;;;;;8.42;87.20;98417.22;5073754;28;20075;-51
2020/12/16 06:56:50;;;;;;;10.48;2.63;;;;;;;8.40;86.84;98401.06;5074929;28;20135;-52
2020/12/16 06:59:56;;;;;;;14.10;1.98;;;;;;;8.39;86.78;98413.25;5062592;28;20090;-49
2020/12/16 07:02:33;;;;;;;11.25;1.38;;;;;;;8.40;87.31;98403.81;4988896;28;20105;-50
2020/12/16 07:05:01;;;;;;;13.77;1.98;;;;;;;8.41;87.59;98397.13;5043227;28;20102;-50
2020/12/16 07:08:07;;;;;;;8.20;2.55;;;;;;;8.39;86.78;98412.50;5068642;28;20036;-55
2020/12/16 07:10:48;;;;;;;5.03;1.23;;;;;;;8.43;87.38;98400.28;5037382;28;20048;-55
2020/12/16 07:13:18;;;;;;;11.50;2.63;;;;;;;8.43;87.36;98407.78;5052535;28;20499;-54
2020/12/16 07:15:57;;;;;;;5.20;1.05;;;;;;;8.43;86.91;98402.25;5061540;28;20050;-52
2020/12/16 07:18:42;;;;;;;3.70;0.75;;;;;;;8.41;86.56;98424.72;5073445;28;20120;-51
2020/12/16 07:21:08;;;;;;;5.82;0.60;;;;;;;8.46;86.80;98423.53;5072570;28;20066;-50
2020/12/16 07:23:51;;;;;;;6.15;0.60;;;;;;;8.47;86.87;98427.88;5072239;28;20094;-53
2020/12/16 07:26:19;;;;;;;4.53;0.80;;;;;;;8.47;86.79;98441.69;5077206;28;20478;-53
2020/12/16 07:28:46;;;;;;;5.15;0.73;;;;;;;8.48;86.48;98429.44;5079283;28;20041;-52
2020/12/16 07:31:12;;;;;;;2.97;0.57;;;;;;;8.47;86.58;98436.94;5063115;28;20577;-51
2020/12/16 07:33:39;;;;;;;4.38;1.10;;;;;;;8.46;86.79;98435.38;5072346;28;20549;-54
2020/12/16 07:36:05;;;;;;;2.35;0.70;;;;;;;8.44;86.46;98437.72;5072410;28;20083;-51
2020/12/16 07:38:32;;;;;;;5.50;0.80;;;;;;;8.43;86.66;98441.66;5071625;28;20033;-49
2020/12/16 07:40:58;;;;;;;6.53;1.15;;;;;;;8.41;86.51;98445.97;5072252;28;20378;-50
2020/12/16 07:43:25;;;;;;;2.15;0.52;;;;;;;8.41;86.34;98466.06;5062249;28;20063;-48
2020/12/16 07:46:08;;;;;;;4.35;0.80;;;;;;;8.43;84.65;98447.16;5069991;28;20768;-52
2020/12/16 07:48:35;;;;;;;3.63;0.68;;;;;;;8.52;85.39;98457.84;5070669;28;20048;-54
2020/12/16 07:51:05;;;;;;;4.22;0.63;;;;;;;8.54;85.17;98464.56;5072681;28;20541;-50
2020/12/16 07:53:33;;;;;;;8.02;1.17;;;;;;;8.57;85.47;98471.25;5072288;28;20044;-50
2020/12/16 07:56:03;;;;;;;4.10;0.65;;;;;;;8.52;85.10;98472.41;5052230;28;20063;-50
2020/12/16 07:58:31;;;;;;;2.03;0.35;;;;;;;8.52;85.31;98471.63;5052825;28;20048;-52
2020/12/16 08:01:07;;;;;;;4.22;0.30;;;;;;;8.52;84.39;98474.41;5051938;28;20094;-51
2020/12/16 08:03:35;;;;;;;3.05;0.65;;;;;;;8.55;85.30;98473.63;5077466;28;20486;-52
2020/12/16 08:06:02;;;;;;;3.10;0.82;;;;;;;8.55;85.13;98476.38;5072943;28;20128;-51
2020/12/16 08:08:29;;;;;;;4.43;0.50;;;;;;;8.58;85.28;98492.13;5065927;28;20102;-54
2020/12/16 08:10:56;;;;;;;1.77;0.43;;;;;;;8.62;85.19;98483.88;5071629;28;20571;-53
2020/12/16 08:13:27;;;;;;;6.07;0.75;;;;;;;8.63;85.25;98496.50;5068132;28;20098;-54
2020/12/16 08:16:05;;;;;;;2.20;0.60;;;;;;;8.61;84.64;98496.09;5070476;28;20119;-51
2020/12/16 08:18:31;;;;;;;2.05;0.45;;;;;;;8.65;85.25;98516.22;5068962;28;20060;-52
2020/12/16 08:20:58;;;;;;;2.78;0.70;;;;;;;8.65;85.14;98519.78;5071032;28;20068;-50
2020/12/16 08:23:25;;;;;;;5.97;0.90;;;;;;;8.66;85.30;98532.38;5070830;28;20393;-52
2020/12/16 08:25:51;;;;;;;3.97;1.50;;;;;;;8.67;85.12;98550.50;5071854;28;20631;-55
2020/12/16 08:28:26;;;;;;;4.38;0.90;;;;;;;8.68;84.66;98546.59;5054346;28;20048;-49
2020/12/16 08:30:53;;;;;;;1.30;0.50;;;;;;;8.70;85.18;98549.75;5071007;28;20123;-50
2020/12/16 08:33:20;;;;;;;4.35;0.43;;;;;;;8.73;84.16;98553.69;5071821;28;20064;-56
2020/12/16 08:36:08;;;;;;;6.22;0.70;;;;;;;8.77;83.80;98558.03;5054310;28;20563;-56
2020/12/16 08:38:40;;;;;;;2.63;0.60;;;;;;;8.81;84.26;98578.19;5044228;28;20487;-54
2020/12/16 08:41:09;;;;;;;3.60;0.50;;;;;;;8.80;84.34;98587.63;5069227;28;20071;-52
2020/12/16 08:43:42;;;;;;;6.20;1.65;;;;;;;8.80;83.78;98598.66;5072256;28;20121;-51
2020/12/16 08:46:17;;;;;;;8.48;1.10;;;;;;;8.82;83.90;98603.78;5071219;28;20041;-49
2020/12/16 08:48:59;;;;;;;4.75;1.52;;;;;;;8.81;84.01;98588.44;5053864;28;20139;-51
2020/12/16 08:51:39;;;;;;;6.93;0.80;;;;;;;8.81;83.77;98597.50;5070833;28;20032;-49
2020/12/16 08:54:08;;;;;;;5.32;0.90;;;;;;;8.84;83.98;98584.91;5071247;28;20427;-52
2020/12/16 08:56:43;;;;;;;7.95;0.98;;;;;;;8.83;83.39;98603.41;5070481;28;20049;-49
2020/12/16 08:59:14;;;;;;;4.28;0.93;;;;;;;8.86;83.95;98607.38;5070659;28;20094;-51
2020/12/16 09:01:46;;;;;;;12.60;1.58;;;;;;;8.86;83.19;98616.44;5065617;28;20136;-53
2020/12/16 09:04:27;;;;;;;9.48;1.08;;;;;;;8.86;83.16;98630.25;5079627;28;20131;-53
2020/12/16 09:07:23;;;;;;;5.05;1.85;;;;;;;8.88;82.88;98638.91;5052005;28;20056;-52
2020/12/16 09:09:49;;;;;;;6.13;0.95;;;;;;;8.90;84.13;98639.31;5049482;28;20135;-55
2020/12/16 09:12:19;;;;;;;4.55;0.68;;;;;;;8.89;83.54;98659.84;5057667;28;20072;-57
2020/12/16 09:14:52;;;;;;;2.20;0.98;;;;;;;8.91;83.45;98649.19;5064480;28;20071;-52
2020/12/16 09:17:21;;;;;;;5.47;1.02;;;;;;;8.92;83.83;98650.00;5051134;28;20032;-54
2020/12/16 09:19:54;;;;;;;6.53;1.10;;;;;;;8.92;83.78;98656.28;5066004;28;20044;-53
2020/12/16 09:22:27;;;;;;;3.35;0.80;;;;;;;8.92;83.26;98666.53;5069216;28;20103;-51
2020/12/16 09:24:58;;;;;;;1.98;0.60;;;;;;;8.93;83.21;98671.66;5062405;28;20120;-53
2020/12/16 09:27:25;;;;;;;4.63;0.95;;;;;;;8.93;83.65;98681.91;5051219;28;20086;-53
2020/12/16 09:30:00;;;;;;;1.92;0.77;;;;;;;8.92;83.54;98692.16;5069462;28;20492;-54
2020/12/16 09:32:27;;;;;;;2.42;0.60;;;;;;;8.94;83.70;98709.13;5068781;28;20442;-51
2020/12/16 09:34:55;;;;;;;10.07;1.40;;;;;;;8.92;83.82;98700.44;5071844;28;20040;-51
2020/12/16 09:37:25;;;;;;;1.27;0.52;;;;;;;8.94;83.53;98725.69;5073854;28;20053;-50
2020/12/16 09:40:10;;;;;;;5.33;0.63;;;;;;;8.92;83.18;98710.69;5071353;28;20040;-55
2020/12/16 09:42:37;;;;;;;4.40;0.98;;;;;;;8.93;83.79;98721.34;5071592;28;20122;-52
2020/12/16 09:45:15;;;;;;;4.15;1.73;;;;;;;8.92;82.74;98739.06;5073562;28;20048;-53
2020/12/16 09:47:43;;;;;;;2.63;1.30;;;;;;;8.94;83.65;98714.66;5075063;28;20040;-51
2020/12/16 09:50:10;;;;;;;5.75;1.75;;;;;;;8.96;83.52;98733.59;5073847;28;20139;-52
2020/12/16 09:52:38;;;;;;;3.20;0.95;;;;;;;8.96;83.62;98739.91;5041052;28;20044;-49
2020/12/16 09:55:21;;;;;;;1.13;0.47;;;;;;;8.97;82.96;98746.22;5073928;28;20041;-49
2020/12/16 09:58:01;;;;;;;2.63;0.82;;;;;;;8.96;82.43;98756.47;5073542;28;20040;-53
2020/12/16 10:00:29;;;;;;;2.33;0.55;;;;;;;8.97;83.24;98760.81;5073861;28;20117;-51
2020/12/16 10:03:01;;;;;;;2.70;0.60;;;;;;;8.98;82.87;98772.63;5078856;28;20040;-50
2020/12/16 10:05:35;;;;;;;2.63;0.57;;;;;;;9.01;83.12;98775.41;5084365;28;20044;-52
2020/12/16 10:08:14;;;;;;;2.47;0.68;;;;;;;9.00;82.84;98786.84;5070590;28;20071;-54
2020/12/16 10:10:42;;;;;;;3.67;1.10;;;;;;;9.02;83.40;98798.31;5072877;28;20040;-53
2020/12/16 10:13:09;;;;;;;2.63;0.80;;;;;;;9.02;83.37;98809.34;5073071;28;20053;-52
2020/12/16 10:15:35;;;;;;;3.08;0.57;;;;;;;8.99;83.11;98816.41;5073497;28;20048;-56
2020/12/16 10:18:02;;;;;;;5.20;0.50;;;;;;;9.00;82.98;98801.44;5072479;28;20048;-52
2020/12/16 10:20:29;;;;;;;6.35;0.85;;;;;;;8.99;83.26;98813.66;5072880;28;20052;-54
2020/12/16 10:22:56;;;;;;;6.82;0.85;;;;;;;9.00;83.22;98822.72;5072630;28;20067;-50
2020/12/16 10:25:22;;;;;;;3.60;0.95;;;;;;;8.97;83.20;98821.53;5064573;28;20375;-51
2020/12/16 10:27:49;;;;;;;4.07;0.98;;;;;;;8.97;82.95;98824.28;5072959;28;20052;-53
2020/12/16 10:30:15;;;;;;;5.43;1.00;;;;;;;8.99;83.19;98843.22;5055763;28;20037;-50
2020/12/16 10:32:42;;;;;;;6.50;1.00;;;;;;;8.97;82.82;98829.81;5072800;28;21261;-54
2020/12/16 10:35:08;;;;;;;2.25;0.70;;;;;;;8.99;83.07;98838.50;5070209;28;20048;-55
2020/12/16 10:37:35;;;;;;;5.18;0.75;;;;;;;8.98;82.96;98847.94;5072369;28;20040;-53
2020/12/16 10:40:03;;;;;;;6.50;1.30;;;;;;;9.00;83.27;98851.09;5072130;28;20044;-57
2020/12/16 10:42:30;;;;;;;6.05;0.93;;;;;;;9.00;83.17;98853.09;5066556;28;20045;-57
2020/12/16 10:44:57;;;;;;;6.72;1.30;;;;;;;9.02;82.74;98862.59;5054337;28;20095;-52
2020/12/16 10:47:23;;;;;;;5.22;0.95;;;;;;;9.04;83.44;98867.72;5053728;28;20494;-49
2020/12/16 10:49:49;;;;;;;5.85;1.25;;;;;;;9.05;83.06;98870.06;5052997;28;20076;-52
2020/12/16 10:52:16;;;;;;;5.45;1.50;;;;;;;9.06;82.97;98871.66;5071463;28;20045;-53
2020/12/16 10:54:42;;;;;;;3.13;0.63;;;;;;;9.06;82.79;98877.19;5073610;28;20128;-53
2020/12/16 10:57:09;;;;;;;3.13;0.35;;;;;;;9.09;82.92;98886.69;5072603;28;20525;-53
2020/12/16 10:59:35;;;;;;;5.78;0.98;;;;;;;9.11;83.08;98893.41;5055770;28;20375;-49
2020/12/16 11:02:10;;;;;;;2.35;0.77;;;;;;;9.11;83.02;98890.66;5073314;28;20036;-50
2020/12/16 11:04:37;;;;;;;2.83;0.40;;;;;;;9.11;82.95;98890.66;5092240;28;20048;-53
2020/12/16 11:07:07;;;;;;;3.65;0.73;;;;;;;9.11;82.70;98901.69;5091707;28;20050;-54
2020/12/16 11:09:34;;;;;;;2.25;0.50;;;;;;;9.12;82.54;98886.72;5064712;28;20494;-52
2020/12/16 11:12:00;;;;;;;4.53;0.75;;;;;;;9.13;82.59;98895.81;5071237;28;20673;-54
2020/12/16 11:14:27;;;;;;;1.27;0.77;;;;;;;9.12;82.54;98897.75;5070406;28;20494;-55
2020/12/16 11:16:54;;;;;;;1.45;0.50;;;;;;;9.12;82.53;98886.72;5055304;28;20045;-54
2020/12/16 11:19:22;;;;;;;5.25;0.50;;;;;;;9.11;82.50;98882.38;5071529;28;20045;-52
2020/12/16 11:21:52;;;;;;;7.00;1.10;;;;;;;9.09;82.51;98895.75;5055903;28;20049;-53
2020/12/16 11:24:21;;;;;;;2.55;1.10;;;;;;;9.07;82.06;98884.31;5072455;28;20040;-53
2020/12/16 11:26:51;;;;;;;5.47;0.80;;;;;;;9.08;82.36;98880.34;5071699;28;20045;-53
2020/12/16 11:29:21;;;;;;;4.05;0.68;;;;;;;9.07;82.25;98884.31;5053058;28;20040;-52
2020/12/16 11:31:57;;;;;;;1.77;0.52;;;;;;;9.02;81.30;98884.66;5047906;28;20059;-52
2020/12/16 11:34:28;;;;;;;3.70;0.98;;;;;;;9.02;81.60;98897.66;5071735;28;20066;-50
2020/12/16 11:36:58;;;;;;;2.92;0.45;;;;;;;9.00;81.57;98900.78;5072786;28;20135;-53
2020/12/16 11:39:25;;;;;;;1.67;0.57;;;;;;;9.00;81.60;98900.03;5077244;28;20036;-51
2020/12/16 11:41:55;;;;;;;2.40;0.45;;;;;;;8.98;81.56;98907.84;5072402;28;20076;-55
2020/12/16 11:44:22;;;;;;;2.08;0.45;;;;;;;9.00;81.92;98916.56;5071508;28;20040;-54
2020/12/16 11:46:49;;;;;;;3.03;0.52;;;;;;;8.98;81.88;98916.13;5072268;28;20045;-50
2020/12/16 11:49:22;;;;;;;4.05;0.90;;;;;;;8.97;81.75;98934.69;5071483;28;20102;-55